Time;durP1;ratioP1;P1;durP2;ratioP2;P2;SDS_P1;SDS_P2;PMS_P1;PMS_P2;Temp;Humidity;BMP_temperature;BMP_pressure;BME280_temperature;BME280_humidity;BME280_pressure;Samples;Min_cycle;Max_cycle;Signal;HPM_P1;HPM_P2
2022/06/29 00:04:54;;;;;;;1.80;0.75;;;;;;;18.30;100.00;98466.75;15288547;19;20014;-58
2022/06/29 00:10:02;;;;;;;0.90;0.65;;;;;;;18.19;100.00;98468.25;15279774;19;20051;-58
2022/06/29 00:15:08;;;;;;;0.98;0.80;;;;;;;18.15;100.00;98459.66;15288993;19;20504;-58
2022/06/29 00:20:15;;;;;;;2.03;0.70;;;;;;;18.09;100.00;98455.03;15289308;19;20014;-58
2022/06/29 00:25:23;;;;;;;1.15;0.75;;;;;;;18.11;100.00;98444.75;15284910;19;20368;-57
2022/06/29 00:30:28;;;;;;;1.55;0.70;;;;;;;18.16;100.00;98442.25;15284622;19;20017;-57
2022/06/29 00:35:33;;;;;;;1.23;0.70;;;;;;;18.21;100.00;98419.81;15278044;19;20035;-57
2022/06/29 00:40:41;;;;;;;1.88;0.80;;;;;;;18.30;100.00;98404.03;15287364;19;20015;-58
2022/06/29 00:45:46;;;;;;;4.13;0.95;;;;;;;18.40;100.00;98399.03;15285336;19;20010;-59
2022/06/29 00:50:52;;;;;;;1.23;0.70;;;;;;;18.44;100.00;98405.69;15288174;19;20010;-57
2022/06/29 00:56:02;;;;;;;1.83;0.82;;;;;;;18.37;100.00;98402.16;15283486;19;20033;-58
2022/06/29 01:01:07;;;;;;;0.95;0.80;;;;;;;18.26;100.00;98386.44;15281099;19;20018;-56
2022/06/29 01:06:13;;;;;;;1.98;0.80;;;;;;;18.19;100.00;98386.44;15283889;19;20471;-54
2022/06/29 01:11:20;;;;;;;1.67;0.75;;;;;;;18.12;100.00;98388.31;15277819;19;20475;-56
2022/06/29 01:16:26;;;;;;;1.23;0.70;;;;;;;18.06;100.00;98384.56;15283954;19;20062;-58
2022/06/29 01:21:36;;;;;;;1.05;0.70;;;;;;;18.01;100.00;98392.56;15282671;19;20097;-56
2022/06/29 01:26:44;;;;;;;1.05;0.75;;;;;;;17.99;100.00;98391.91;15282693;19;20011;-58
2022/06/29 01:31:49;;;;;;;1.23;0.73;;;;;;;17.99;100.00;98389.19;15279880;19;20010;-56
2022/06/29 01:36:54;;;;;;;2.53;0.80;;;;;;;18.00;100.00;98382.69;15281373;19;20038;-58
2022/06/29 01:42:02;;;;;;;1.08;0.75;;;;;;;18.00;100.00;98371.78;15276342;19;20027;-58
2022/06/29 01:47:07;;;;;;;0.80;0.68;;;;;;;17.89;100.00;98358.75;15280250;19;20014;-58
2022/06/29 01:52:13;;;;;;;1.15;0.80;;;;;;;17.85;100.00;98358.34;15281893;19;20022;-58
2022/06/29 01:57:20;;;;;;;1.33;0.80;;;;;;;17.83;100.00;98361.28;15280168;19;20042;-58
2022/06/29 02:02:25;;;;;;;2.63;0.73;;;;;;;17.78;100.00;98371.97;15282281;19;20030;-54
2022/06/29 02:07:31;;;;;;;0.90;0.70;;;;;;;17.69;100.00;98365.06;15275261;19;20018;-57
2022/06/29 02:12:38;;;;;;;1.10;0.70;;;;;;;17.68;100.00;98366.09;15275057;19;20403;-58
2022/06/29 02:17:43;;;;;;;0.70;0.70;;;;;;;17.63;100.00;98364.00;15276088;19;20015;-58
2022/06/29 02:22:48;;;;;;;0.80;0.80;;;;;;;17.58;100.00;98361.06;15281160;19;20015;-57
2022/06/29 02:27:56;;;;;;;0.90;0.70;;;;;;;17.50;100.00;98353.09;15276225;19;20014;-58
2022/06/29 02:38:19;;;;;;;1.27;0.98;;;;;;;17.51;100.00;98341.16;15271623;19;20018;-58
2022/06/29 02:43:26;;;;;;;3.40;1.15;;;;;;;17.60;100.00;98336.31;15275443;19;20025;-58
2022/06/29 02:48:32;;;;;;;3.13;0.90;;;;;;;17.65;100.00;98334.66;15275451;19;20566;-58
2022/06/29 02:53:37;;;;;;;1.63;1.10;;;;;;;17.72;100.00;98351.00;15278243;19;20025;-57
2022/06/29 02:58:45;;;;;;;1.10;1.00;;;;;;;17.74;100.00;98351.63;15277926;19;20034;-54
2022/06/29 03:03:50;;;;;;;1.30;1.10;;;;;;;17.79;100.00;98351.84;15278901;19;20995;-57
2022/06/29 03:08:55;;;;;;;1.77;1.17;;;;;;;17.82;100.00;98350.59;15272093;19;20023;-59
2022/06/29 03:14:03;;;;;;;2.00;1.10;;;;;;;17.87;100.00;98357.09;15274272;19;20373;-56
2022/06/29 03:19:09;;;;;;;2.25;1.10;;;;;;;17.89;100.00;98345.13;15268834;19;20019;-56
2022/06/29 03:24:14;;;;;;;4.90;1.30;;;;;;;17.94;100.00;98356.22;15270134;19;20018;-58
2022/06/29 03:29:23;;;;;;;3.38;1.40;;;;;;;17.96;100.00;98354.13;15271286;19;20463;-57
2022/06/29 03:34:28;;;;;;;2.42;1.20;;;;;;;17.99;100.00;98356.47;15272274;19;20014;-58
2022/06/29 03:39:34;;;;;;;1.30;1.20;;;;;;;18.02;100.00;98356.06;15271791;19;20467;-58
2022/06/29 03:44:41;;;;;;;1.48;1.20;;;;;;;18.02;100.00;98345.97;15271603;19;20804;-58
2022/06/29 03:49:47;;;;;;;1.30;1.20;;;;;;;18.12;100.00;98336.53;15264195;19;20022;-58
2022/06/29 03:54:52;;;;;;;2.10;1.00;;;;;;;18.21;100.00;98337.16;15273290;19;20014;-57
2022/06/29 03:59:59;;;;;;;5.53;1.10;;;;;;;18.37;100.00;98344.03;15271832;19;20022;-58
2022/06/29 04:05:05;;;;;;;2.60;1.20;;;;;;;18.36;100.00;98361.44;14759559;19;10001332;-56
2022/06/29 04:10:11;;;;;;;2.00;1.15;;;;;;;18.30;100.00;98358.53;15269431;19;20252;-57
2022/06/29 04:15:19;;;;;;;3.08;1.35;;;;;;;18.29;100.00;98353.28;15267606;19;20499;-57
2022/06/29 04:25:42;;;;;;;3.22;1.20;;;;;;;18.38;100.00;98354.75;15267953;19;20739;-56
2022/06/29 04:30:54;;;;;;;3.33;1.10;;;;;;;18.56;100.00;98334.13;15268474;19;20474;-54
2022/06/29 04:36:00;;;;;;;2.83;1.17;;;;;;;18.55;100.00;98327.84;15284933;19;20025;-55
2022/06/29 04:41:06;;;;;;;2.08;1.20;;;;;;;18.56;100.00;98336.84;15287150;19;20491;-58
2022/06/29 04:46:22;;;;;;;1.33;1.23;;;;;;;18.59;100.00;98347.34;15280892;19;20022;-57
2022/06/29 04:51:30;;;;;;;1.60;1.02;;;;;;;18.61;100.00;98337.88;15280989;19;20467;-55
2022/06/29 04:56:37;;;;;;;1.83;1.00;;;;;;;18.56;100.00;98340.44;15277515;19;20021;-57
2022/06/29 05:01:47;;;;;;;3.40;1.30;;;;;;;18.61;100.00;98340.59;15287368;19;20024;-58
2022/06/29 05:06:52;;;;;;;1.25;1.00;;;;;;;18.65;100.00;98343.72;15280169;19;20476;-57
2022/06/29 05:11:58;;;;;;;1.95;1.20;;;;;;;18.67;100.00;98341.63;15285904;19;20019;-60
2022/06/29 05:17:06;;;;;;;1.92;1.20;;;;;;;18.50;100.00;98345.91;15277590;19;20027;-56
2022/06/29 05:22:11;;;;;;;1.73;1.38;;;;;;;18.27;100.00;98349.94;15284001;19;20014;-58
2022/06/29 05:27:16;;;;;;;2.10;1.20;;;;;;;18.15;100.00;98345.16;15273216;19;20031;-55
2022/06/29 05:32:24;;;;;;;2.15;1.30;;;;;;;17.96;100.00;98340.50;15282417;19;20023;-59
2022/06/29 05:37:30;;;;;;;3.83;1.33;;;;;;;17.90;100.00;98355.00;15280040;19;20006;-59
2022/06/29 05:42:36;;;;;;;1.80;1.40;;;;;;;17.87;100.00;98353.53;15281216;19;20040;-57
2022/06/29 05:47:44;;;;;;;1.70;1.40;;;;;;;17.85;100.00;98361.91;15275089;19;20034;-60
2022/06/29 05:52:51;;;;;;;3.90;1.60;;;;;;;17.90;100.00;98364.00;15276979;19;20016;-57
2022/06/29 05:57:57;;;;;;;4.18;1.50;;;;;;;17.94;100.00;98364.41;15274926;19;20025;-55
2022/06/29 06:03:04;;;;;;;3.80;1.60;;;;;;;17.93;100.00;98368.22;15282727;19;20031;-57
2022/06/29 06:08:11;;;;;;;2.78;1.60;;;;;;;17.93;100.00;98368.22;15268456;19;20355;-58
2022/06/29 06:13:16;;;;;;;3.58;1.83;;;;;;;17.98;100.00;98371.16;15271270;19;20121;-57
2022/06/29 06:18:24;;;;;;;1.90;1.58;;;;;;;18.01;100.00;98377.03;15272077;19;20038;-59
2022/06/29 06:23:29;;;;;;;2.80;1.60;;;;;;;18.06;100.00;98370.94;15273551;19;20014;-58
2022/06/29 06:28:34;;;;;;;2.13;1.60;;;;;;;18.15;100.00;98377.88;15278916;19;20015;-60
2022/06/29 06:33:41;;;;;;;1.63;1.50;;;;;;;18.21;100.00;98386.22;15272680;19;20015;-60
2022/06/29 06:38:46;;;;;;;2.03;1.50;;;;;;;18.23;100.00;98384.97;15279042;19;20022;-59
2022/06/29 06:43:52;;;;;;;2.05;1.55;;;;;;;18.20;100.00;98379.94;15280737;19;20046;-59
2022/06/29 06:49:00;;;;;;;3.03;1.60;;;;;;;18.23;100.00;98373.22;15275295;19;20027;-59
2022/06/29 06:54:04;;;;;;;5.45;1.92;;;;;;;18.16;100.00;98385.00;15271403;19;20018;-59
2022/06/29 06:59:10;;;;;;;4.32;1.90;;;;;;;18.11;100.00;98392.13;15276645;19;20015;-59
2022/06/29 07:04:17;;;;;;;2.67;1.95;;;;;;;18.08;100.00;98377.00;15269287;19;20006;-58
2022/06/29 07:09:22;;;;;;;3.60;1.90;;;;;;;18.10;100.00;98376.81;15274926;19;20015;-59
2022/06/29 07:14:28;;;;;;;2.50;1.90;;;;;;;18.10;100.00;98377.66;15277955;19;20010;-59
2022/06/29 07:19:35;;;;;;;2.83;2.00;;;;;;;18.09;100.00;98366.97;15277258;19;20047;-59
2022/06/29 07:24:40;;;;;;;3.63;2.00;;;;;;;18.09;100.00;98367.78;15276279;19;20475;-57
2022/06/29 07:29:45;;;;;;;3.15;2.10;;;;;;;18.18;100.00;98371.13;15270879;19;20010;-59
2022/06/29 07:34:53;;;;;;;2.60;2.10;;;;;;;18.28;100.00;98374.25;15268170;19;20039;-59
2022/06/29 07:39:59;;;;;;;2.17;1.95;;;;;;;18.40;100.00;98388.09;15277265;19;20011;-59
2022/06/29 07:45:18;;;;;;;2.20;2.00;;;;;;;18.54;100.00;98390.78;15274902;19;20007;-59
2022/06/29 07:50:32;;;;;;;4.00;1.90;;;;;;;18.68;100.00;98375.22;15271481;19;20006;-59
2022/06/29 07:55:37;;;;;;;3.40;2.00;;;;;;;18.78;100.00;98392.81;15274250;19;20392;-59
2022/06/29 08:00:44;;;;;;;2.22;1.90;;;;;;;18.90;100.00;98386.66;15271292;19;20023;-58
2022/06/29 08:05:52;;;;;;;3.17;2.38;;;;;;;19.02;100.00;98398.63;15266184;19;20536;-57
2022/06/29 08:10:58;;;;;;;2.30;2.10;;;;;;;19.11;100.00;98395.66;15283783;19;20086;-55
2022/06/29 08:16:03;;;;;;;4.53;2.10;;;;;;;19.27;100.00;98395.16;15285728;19;20022;-57
2022/06/29 08:21:10;;;;;;;2.97;2.40;;;;;;;19.47;100.00;98384.09;15288885;19;20711;-58
2022/06/29 08:26:15;;;;;;;2.72;2.08;;;;;;;19.63;100.00;98376.44;15284373;19;20036;-58
2022/06/29 08:31:40;;;;;;;2.58;2.20;;;;;;;19.84;100.00;98378.78;15276905;19;20022;-59
2022/06/29 08:36:49;;;;;;;3.22;2.47;;;;;;;19.94;100.00;98361.06;15282337;19;20010;-56
2022/06/29 08:41:58;;;;;;;3.67;2.38;;;;;;;20.09;100.00;98360.72;15280915;19;20007;-58
2022/06/29 08:47:04;;;;;;;4.35;2.50;;;;;;;20.27;100.00;98360.78;15283259;19;20383;-56
2022/06/29 08:52:13;;;;;;;3.00;2.70;;;;;;;20.42;100.00;98346.72;15281092;19;20015;-56
2022/06/29 08:57:19;;;;;;;3.25;2.78;;;;;;;20.51;100.00;98341.78;15281552;19;20006;-55
2022/06/29 09:02:25;;;;;;;4.07;2.60;;;;;;;20.74;100.00;98340.25;15282980;19;20043;-60
2022/06/29 09:07:33;;;;;;;5.40;2.90;;;;;;;20.92;100.00;98340.25;15282582;19;20106;-55
2022/06/29 09:12:38;;;;;;;3.40;3.10;;;;;;;21.11;100.00;98339.38;15274894;19;20023;-57
2022/06/29 09:17:44;;;;;;;3.55;2.75;;;;;;;21.17;100.00;98336.56;15280053;19;20030;-57
2022/06/29 09:22:57;;;;;;;3.28;2.97;;;;;;;21.27;100.00;98329.66;15283928;19;20020;-53
2022/06/29 09:28:02;;;;;;;3.88;2.60;;;;;;;21.45;100.00;98331.50;15281841;19;20015;-58
2022/06/29 09:33:09;;;;;;;3.10;2.88;;;;;;;21.52;100.00;98322.13;15258004;19;20016;-57
2022/06/29 09:38:25;;;;;;;3.05;2.70;;;;;;;21.70;100.00;98326.72;15278120;19;20013;-59
2022/06/29 09:43:31;;;;;;;3.05;2.75;;;;;;;21.95;100.00;98327.56;15277388;19;20022;-56
2022/06/29 09:48:38;;;;;;;3.20;2.45;;;;;;;22.02;100.00;98309.09;15282072;19;20374;-59
2022/06/29 09:53:48;;;;;;;2.88;2.40;;;;;;;21.93;100.00;98313.28;15283244;19;20084;-54
2022/06/29 09:58:55;;;;;;;3.45;2.88;;;;;;;21.94;100.00;98310.28;15282126;19;20027;-57
2022/06/29 10:04:02;;;;;;;2.67;2.30;;;;;;;22.08;100.00;98313.59;15282190;19;20025;-53
2022/06/29 10:09:10;;;;;;;3.30;2.92;;;;;;;22.07;100.00;98300.13;15268780;19;20378;-57
2022/06/29 10:14:29;;;;;;;2.67;2.47;;;;;;;22.12;100.00;98303.84;15281599;19;20028;-57
2022/06/29 10:19:45;;;;;;;3.20;2.90;;;;;;;22.05;100.00;98302.28;15280521;19;20010;-58
2022/06/29 10:25:07;;;;;;;3.20;2.90;;;;;;;22.08;100.00;98294.41;15280295;19;20025;-57
2022/06/29 10:30:26;;;;;;;3.40;3.10;;;;;;;22.08;100.00;98285.34;15277906;19;20014;-58
2022/06/29 10:35:58;;;;;;;4.88;3.25;;;;;;;22.00;100.00;98281.06;15278179;19;20409;-58
2022/06/29 10:43:07;;;;;;;3.40;3.10;;;;;;;21.88;100.00;98281.03;15275608;19;20011;-58
2022/06/29 10:47:00;;;;;;;3.97;3.28;;;;;;;21.78;100.00;98281.66;15275267;19;20511;-57
2022/06/29 10:52:06;;;;;;;3.53;3.22;;;;;;;21.79;100.00;98283.34;15276425;19;20476;-57
2022/06/29 10:57:14;;;;;;;4.32;3.92;;;;;;;21.74;100.00;98285.94;15276889;19;20014;-57
2022/06/29 11:02:20;;;;;;;3.92;3.50;;;;;;;21.85;100.00;98284.28;15278142;19;20014;-58
2022/06/29 11:12:53;;;;;;;3.55;3.13;;;;;;;22.29;100.00;98261.91;15269892;19;20389;-57
2022/06/29 11:17:58;;;;;;;3.60;3.30;;;;;;;22.66;100.00;98269.84;15278346;19;20460;-57
2022/06/29 11:23:03;;;;;;;4.03;3.00;;;;;;;22.96;100.00;98263.31;15271356;19;20014;-54
2022/06/29 11:28:11;;;;;;;3.42;2.65;;;;;;;23.26;100.00;98259.47;15276957;19;20007;-57
2022/06/29 11:33:16;;;;;;;3.03;2.83;;;;;;;23.48;100.00;98251.31;15274172;19;20011;-56
2022/06/29 11:38:21;;;;;;;2.97;2.67;;;;;;;23.95;100.00;98243.75;15277417;19;20015;-58
2022/06/29 11:43:29;;;;;;;2.80;2.60;;;;;;;24.23;100.00;98234.56;15283573;19;20034;-56
2022/06/29 11:49:33;;;;;;;2.90;2.70;;;;;;;24.20;100.00;98232.28;15287653;19;20015;-56
2022/06/29 11:54:01;;;;;;;3.40;3.10;;;;;;;24.14;100.00;98228.66;15283675;19;20042;-56
2022/06/29 11:59:19;;;;;;;3.47;2.72;;;;;;;24.28;100.00;98223.63;15290987;19;20013;-58
2022/06/29 12:04:29;;;;;;;4.65;2.72;;;;;;;24.26;100.00;98213.94;15287334;19;20381;-64
2022/06/29 12:09:37;;;;;;;3.07;2.83;;;;;;;24.16;100.00;98211.91;15273092;19;20017;-66
2022/06/29 12:14:45;;;;;;;3.10;2.80;;;;;;;24.17;100.00;98205.28;15291092;19;20399;-64
2022/06/29 12:19:50;;;;;;;3.65;3.10;;;;;;;24.37;100.00;98203.88;15288076;19;20035;-65
2022/06/29 12:24:55;;;;;;;4.70;3.15;;;;;;;24.51;100.00;98199.66;15283000;19;20337;-65
2022/06/29 12:30:04;;;;;;;3.22;2.92;;;;;;;24.48;100.00;98208.41;15286490;19;20365;-65
2022/06/29 12:35:10;;;;;;;2.88;2.67;;;;;;;24.57;100.00;98193.09;15288734;19;20014;-65
2022/06/29 12:40:15;;;;;;;3.15;2.85;;;;;;;24.80;100.00;98193.91;15288286;19;20028;-65
2022/06/29 12:45:24;;;;;;;3.22;2.25;;;;;;;24.95;100.00;98187.72;15287741;19;20011;-64
2022/06/29 12:50:29;;;;;;;3.20;2.90;;;;;;;25.34;100.00;98189.44;15279827;19;20038;-64
2022/06/29 12:55:34;;;;;;;2.90;2.70;;;;;;;25.51;100.00;98179.09;15276621;19;20356;-68
2022/06/29 13:00:41;;;;;;;3.55;3.25;;;;;;;25.26;100.00;98176.97;15285547;19;20021;-65
2022/06/29 13:05:47;;;;;;;4.53;2.60;;;;;;;25.17;100.00;98179.38;15282643;19;20105;-65
2022/06/29 13:10:53;;;;;;;4.28;3.13;;;;;;;25.01;100.00;98172.06;15284569;19;20025;-67
2022/06/29 13:16:01;;;;;;;3.38;3.08;;;;;;;24.96;100.00;98170.09;15284296;19;20505;-66
2022/06/29 13:21:09;;;;;;;3.30;3.00;;;;;;;24.90;100.00;98173.91;15277332;19;20018;-66
2022/06/29 13:26:14;;;;;;;3.00;2.70;;;;;;;24.78;100.00;98163.03;15283655;19;20498;-66
2022/06/29 13:31:22;;;;;;;4.05;3.30;;;;;;;24.92;100.00;98161.53;15275557;19;20018;-65
2022/06/29 13:36:29;;;;;;;3.70;2.83;;;;;;;25.01;100.00;98158.28;15281128;19;20078;-67
2022/06/29 13:41:35;;;;;;;3.13;2.85;;;;;;;24.91;100.00;98159.84;15280187;19;20054;-65
2022/06/29 13:46:44;;;;;;;3.83;2.97;;;;;;;24.83;100.00;98157.59;15280328;19;20038;-67
2022/06/29 13:51:50;;;;;;;3.22;2.92;;;;;;;24.55;100.00;98162.22;15277721;19;20011;-65
2022/06/29 13:56:55;;;;;;;3.10;2.80;;;;;;;24.45;100.00;98151.09;15274194;19;20014;-66
2022/06/29 14:02:04;;;;;;;3.78;2.70;;;;;;;24.28;100.00;98170.47;15275049;19;20018;-64
2022/06/29 14:07:09;;;;;;;3.33;2.92;;;;;;;24.09;100.00;98158.94;15278642;19;20019;-64
2022/06/29 14:12:35;;;;;;;4.00;2.95;;;;;;;24.03;100.00;98154.47;15280759;19;20030;-67
2022/06/29 14:17:44;;;;;;;3.63;3.22;;;;;;;24.05;100.00;98146.81;15277774;19;20474;-67
2022/06/29 14:22:50;;;;;;;3.42;2.70;;;;;;;24.16;100.00;98137.59;15280854;19;20007;-65
2022/06/29 14:27:55;;;;;;;3.08;2.78;;;;;;;24.52;100.00;98150.91;15273095;19;20018;-67
2022/06/29 14:33:03;;;;;;;3.90;2.60;;;;;;;24.84;100.00;98152.88;15272624;19;20035;-64
2022/06/29 14:38:08;;;;;;;3.67;3.05;;;;;;;24.55;100.00;98151.22;15277724;19;20014;-66
2022/06/29 14:43:13;;;;;;;3.92;2.60;;;;;;;24.70;100.00;98146.97;15279521;19;20007;-67
2022/06/29 14:48:21;;;;;;;3.45;2.72;;;;;;;24.68;100.00;98144.47;15276976;19;20023;-66
2022/06/29 14:53:26;;;;;;;2.95;2.75;;;;;;;24.68;100.00;98138.97;15276277;19;20555;-63
2022/06/29 14:58:31;;;;;;;3.75;2.53;;;;;;;24.47;100.00;98143.41;15272144;19;20010;-68
2022/06/29 15:03:43;;;;;;;4.05;3.40;;;;;;;24.41;100.00;98130.69;15280562;19;20014;-68
2022/06/29 15:08:48;;;;;;;3.75;2.90;;;;;;;24.48;100.00;98142.34;15270626;19;20022;-71
2022/06/29 15:13:53;;;;;;;4.95;2.80;;;;;;;24.70;100.00;98131.28;15276363;19;20471;-70
2022/06/29 15:19:01;;;;;;;4.53;3.00;;;;;;;24.85;100.00;98116.84;15279075;19;20007;-69
2022/06/29 15:24:06;;;;;;;4.68;2.75;;;;;;;25.22;100.00;98105.00;15277610;19;20018;-66
2022/06/29 15:29:13;;;;;;;4.13;2.80;;;;;;;25.59;100.00;98096.94;15277609;19;20018;-65
2022/06/29 15:39:38;;;;;;;3.50;2.87;;;;;;;26.04;100.00;98087.22;15270983;19;20022;-69
2022/06/29 15:44:43;;;;;;;3.75;2.80;;;;;;;26.02;100.00;98088.59;15279583;19;20015;-66
2022/06/29 15:49:51;;;;;;;4.57;3.00;;;;;;;26.23;100.00;98073.75;15274434;19;20015;-64
2022/06/29 16:00:18;;;;;;;4.15;2.80;;;;;;;25.71;100.00;98078.25;15272792;19;20019;-65
2022/06/29 16:05:27;;;;;;;5.47;2.80;;;;;;;25.73;100.00;98081.56;15269171;19;20035;-66
2022/06/29 16:10:32;;;;;;;4.80;2.70;;;;;;;25.45;100.00;98078.16;15267721;19;20038;-67
2022/06/29 16:15:38;;;;;;;2.90;2.67;;;;;;;25.87;100.00;98083.84;15268244;19;20011;-63
2022/06/29 16:20:48;;;;;;;3.63;2.47;;;;;;;25.80;100.00;98090.44;15274834;19;20015;-63
2022/06/29 16:25:53;;;;;;;3.10;2.50;;;;;;;25.41;100.00;98096.31;15271963;19;20018;-65
2022/06/29 16:30:58;;;;;;;3.13;2.30;;;;;;;25.14;100.00;98102.72;15282628;19;20019;-61
2022/06/29 16:36:06;;;;;;;5.13;2.60;;;;;;;25.00;100.00;98090.47;15278227;19;20014;-63
2022/06/29 16:41:11;;;;;;;3.38;2.65;;;;;;;24.74;100.00;98087.53;15279525;19;20079;-65
2022/06/29 16:46:16;;;;;;;4.72;2.58;;;;;;;24.45;100.00;98082.28;15283864;19;20014;-60
2022/06/29 16:51:24;;;;;;;2.60;2.28;;;;;;;24.35;100.00;98085.75;15284703;19;20372;-65
2022/06/29 16:56:29;;;;;;;4.55;2.53;;;;;;;24.16;100.00;98099.88;15284771;19;20018;-62
2022/06/29 17:01:34;;;;;;;3.47;2.47;;;;;;;24.02;100.00;98093.09;15286201;19;20018;-61
2022/06/29 17:06:42;;;;;;;4.65;2.55;;;;;;;23.89;100.00;98087.94;15283517;19;20015;-67
2022/06/29 17:11:47;;;;;;;2.60;2.40;;;;;;;23.71;100.00;98070.69;15281546;19;20015;-63
2022/06/29 17:16:52;;;;;;;4.22;2.30;;;;;;;23.67;100.00;98080.53;15275128;19;20022;-67
2022/06/29 17:21:59;;;;;;;3.50;2.38;;;;;;;23.61;100.00;98078.81;15284511;19;20014;-64
2022/06/29 17:27:05;;;;;;;4.80;2.30;;;;;;;23.54;100.00;98084.50;15282833;19;20340;-67
2022/06/29 17:32:10;;;;;;;3.80;2.65;;;;;;;23.47;100.00;98083.84;15283041;19;20010;-68
2022/06/29 17:37:18;;;;;;;3.83;2.88;;;;;;;23.37;100.00;98081.81;15281256;19;20006;-64
2022/06/29 17:42:31;;;;;;;3.00;2.67;;;;;;;23.33;100.00;98070.50;15273788;19;20035;-65
2022/06/29 17:47:36;;;;;;;3.58;2.45;;;;;;;23.33;100.00;98070.50;15273653;19;20540;-66
2022/06/29 17:52:44;;;;;;;4.68;2.78;;;;;;;23.19;100.00;98064.50;15282507;19;20051;-68
2022/06/29 17:57:49;;;;;;;3.33;2.88;;;;;;;23.02;100.00;98063.69;15280790;19;20031;-65
2022/06/29 18:02:54;;;;;;;8.35;3.13;;;;;;;23.02;100.00;98063.69;15282034;19;20010;-64
2022/06/29 18:08:02;;;;;;;3.58;2.55;;;;;;;22.96;100.00;98067.41;15260478;19;20612;-56
2022/06/29 18:13:07;;;;;;;4.70;2.88;;;;;;;22.85;100.00;98074.66;15273976;19;20024;-55
2022/06/29 18:18:12;;;;;;;3.72;2.65;;;;;;;22.78;100.00;98074.84;15264664;19;20371;-56
2022/06/29 18:23:20;;;;;;;4.35;2.90;;;;;;;22.66;100.00;98063.91;15277117;19;20026;-53
2022/06/29 18:28:35;;;;;;;3.65;2.63;;;;;;;22.70;100.00;98056.84;15273804;19;20350;-51
2022/06/29 18:33:40;;;;;;;2.88;2.65;;;;;;;22.66;100.00;98060.34;15278114;19;20011;-55
2022/06/29 18:38:48;;;;;;;4.47;2.80;;;;;;;22.65;100.00;98056.75;15274360;19;20598;-55
2022/06/29 18:43:54;;;;;;;3.28;2.78;;;;;;;22.63;100.00;98058.94;15273424;19;20013;-57
2022/06/29 18:49:00;;;;;;;4.50;2.60;;;;;;;22.50;100.00;98060.09;15274261;19;20029;-52
2022/06/29 18:54:08;;;;;;;4.32;2.63;;;;;;;22.36;100.00;98044.97;15264801;19;20023;-56
2022/06/29 18:59:14;;;;;;;3.80;2.70;;;;;;;22.26;100.00;98051.94;15275256;19;20357;-51
2022/06/29 19:04:19;;;;;;;3.72;2.60;;;;;;;22.17;100.00;98043.28;15277517;19;20015;-53
2022/06/29 19:09:28;;;;;;;3.63;2.55;;;;;;;22.05;100.00;98049.91;15276221;19;20037;-56
2022/06/29 19:14:33;;;;;;;5.07;2.70;;;;;;;21.92;100.00;98049.13;15272181;19;20018;-53
2022/06/29 19:19:38;;;;;;;3.40;2.97;;;;;;;21.88;100.00;98061.66;15271090;19;20010;-54
2022/06/29 19:24:46;;;;;;;3.53;2.90;;;;;;;21.75;100.00;98081.16;15269765;19;20042;-55
2022/06/29 19:29:51;;;;;;;3.55;2.75;;;;;;;21.65;100.00;98087.25;15274929;19;20018;-55
2022/06/29 19:34:56;;;;;;;3.42;2.95;;;;;;;21.61;100.00;98095.13;15271542;19;20075;-54
2022/06/29 19:40:06;;;;;;;4.40;3.00;;;;;;;21.55;100.00;98101.53;15251915;19;20017;-58
2022/06/29 19:45:11;;;;;;;4.43;3.28;;;;;;;21.40;100.00;98102.84;15275053;19;20042;-54
2022/06/29 19:50:16;;;;;;;4.05;3.17;;;;;;;21.18;100.00;98097.16;15266992;19;20018;-56
2022/06/29 19:55:24;;;;;;;5.07;3.20;;;;;;;21.06;100.00;98104.53;15261328;19;20015;-51
2022/06/29 20:00:29;;;;;;;3.85;3.30;;;;;;;20.92;100.00;98126.66;15272667;19;20479;-53
2022/06/29 20:05:34;;;;;;;6.32;3.55;;;;;;;20.88;100.00;98136.41;15282934;19;20035;-52
2022/06/29 20:10:42;;;;;;;4.47;3.58;;;;;;;20.85;100.00;98136.91;15285703;19;20828;-52
2022/06/29 20:16:08;;;;;;;5.18;3.70;;;;;;;20.77;100.00;98131.75;15284383;19;20006;-55
2022/06/29 20:21:16;;;;;;;4.95;3.75;;;;;;;20.72;100.00;98121.47;15281493;19;20015;-55
2022/06/29 20:26:25;;;;;;;4.07;3.40;;;;;;;20.64;100.00;98114.44;15286475;19;20355;-57
2022/06/29 20:31:30;;;;;;;4.28;3.60;;;;;;;20.57;100.00;98102.75;15282707;19;20023;-55
2022/06/29 20:36:36;;;;;;;4.28;3.88;;;;;;;20.52;100.00;98116.31;15286187;19;20491;-52
2022/06/29 20:41:43;;;;;;;4.47;4.07;;;;;;;20.51;100.00;98105.59;15286892;19;20027;-54
2022/06/29 20:46:49;;;;;;;4.88;4.00;;;;;;;20.52;100.00;98110.00;15280740;19;20015;-56
2022/06/29 20:51:54;;;;;;;4.20;3.83;;;;;;;20.50;100.00;98113.00;15283002;19;20014;-52
2022/06/29 20:57:05;;;;;;;4.32;3.80;;;;;;;20.53;100.00;98108.94;15273011;19;20031;-55
2022/06/29 21:02:10;;;;;;;4.80;4.20;;;;;;;20.49;100.00;98111.31;15274215;19;20014;-52
2022/06/29 21:07:15;;;;;;;5.13;4.60;;;;;;;20.46;100.00;98117.25;15278906;19;20034;-55
2022/06/29 21:12:23;;;;;;;6.40;5.80;;;;;;;20.35;100.00;98126.25;15280903;19;20010;-56
2022/06/29 21:17:29;;;;;;;5.80;5.22;;;;;;;20.35;100.00;98142.66;15275189;19;20018;-52
2022/06/29 21:22:34;;;;;;;7.10;6.35;;;;;;;20.36;100.00;98149.81;15279434;19;20022;-57
2022/06/29 21:27:43;;;;;;;7.63;6.20;;;;;;;20.34;100.00;98163.72;15271776;19;20031;-54
2022/06/29 21:32:49;;;;;;;6.07;5.57;;;;;;;20.35;100.00;98165.38;15273899;19;20014;-56
2022/06/29 21:37:54;;;;;;;8.30;7.50;;;;;;;20.27;100.00;98162.97;15276789;19;20496;-56
2022/06/29 21:43:02;;;;;;;7.90;7.18;;;;;;;20.29;100.00;98163.56;15282072;19;20831;-56
2022/06/29 21:51:07;;;;;;;8.52;7.72;;;;;;;20.25;100.00;98155.00;15276394;19;20367;-53
2022/06/29 21:53:32;;;;;;;8.25;7.45;;;;;;;20.23;100.00;98159.88;15279655;19;20026;-53
2022/06/29 21:58:41;;;;;;;9.07;8.18;;;;;;;20.25;100.00;98155.00;15273762;19;20015;-55
2022/06/29 22:03:49;;;;;;;9.50;8.50;;;;;;;20.27;100.00;98168.44;15274756;19;20018;-56
2022/06/29 22:08:55;;;;;;;9.63;8.73;;;;;;;20.26;100.00;98170.34;15277061;19;20010;-56
2022/06/29 22:14:03;;;;;;;9.40;8.50;;;;;;;20.30;100.00;98167.97;15278978;19;20075;-55
2022/06/29 22:19:08;;;;;;;10.07;9.07;;;;;;;20.25;100.00;98160.47;15277107;19;20010;-52
2022/06/29 22:24:14;;;;;;;9.80;8.90;;;;;;;20.28;100.00;98154.53;15280634;19;20117;-56
2022/06/29 22:29:22;;;;;;;10.18;9.18;;;;;;;20.28;100.00;98149.06;15276119;19;20373;-55
2022/06/29 22:34:27;;;;;;;10.82;9.63;;;;;;;20.26;100.00;98151.19;15275190;19;20026;-54
2022/06/29 22:39:32;;;;;;;10.40;9.40;;;;;;;20.25;100.00;98155.00;15273883;19;20011;-54
2022/06/29 22:44:40;;;;;;;9.80;8.80;;;;;;;20.24;100.00;98150.59;15277709;19;20034;-52
2022/06/29 22:49:45;;;;;;;12.20;10.45;;;;;;;20.21;100.00;98148.31;15278395;19;20010;-53
2022/06/29 22:54:50;;;;;;;12.00;9.77;;;;;;;20.14;100.00;98166.72;15275024;19;20018;-53
2022/06/29 22:59:57;;;;;;;10.77;9.68;;;;;;;20.17;100.00;98158.88;15276064;19;20021;-52
2022/06/29 23:05:02;;;;;;;11.60;10.40;;;;;;;20.13;100.00;98152.19;15273722;19;20014;-52
2022/06/29 23:10:08;;;;;;;11.18;10.05;;;;;;;20.12;100.00;98150.53;15269210;19;20391;-52
2022/06/29 23:15:16;;;;;;;11.57;10.32;;;;;;;20.09;100.00;98142.81;15275053;19;20022;-53
2022/06/29 23:20:21;;;;;;;12.70;11.40;;;;;;;20.13;100.00;98133.06;15272877;19;20468;-57
2022/06/29 23:25:26;;;;;;;11.07;9.98;;;;;;;20.14;100.00;98136.63;15275454;19;20036;-57
2022/06/29 23:30:33;;;;;;;11.30;9.30;;;;;;;20.14;100.00;98137.47;15273677;19;20042;-52
2022/06/29 23:35:44;;;;;;;11.55;10.35;;;;;;;20.14;100.00;98129.25;15269634;19;20019;-52
2022/06/29 23:40:49;;;;;;;10.98;9.82;;;;;;;20.14;100.00;98129.25;15283534;19;20020;-55
2022/06/29 23:46:01;;;;;;;12.77;9.77;;;;;;;20.16;100.00;98131.78;15290329;19;20019;-52
2022/06/29 23:51:08;;;;;;;12.55;10.32;;;;;;;20.12;100.00;98122.34;15288334;19;20006;-52
2022/06/29 23:56:13;;;;;;;12.50;11.00;;;;;;;20.12;100.00;98131.38;15286711;19;20031;-52
